HAJ weather

Hannover Airport
Hannover, Lower Saxony, Germany

Public forecast

Using degrees Celsius for public forecast. Weather courtesy of forecast.io.

Current aviation weather report (METAR) for Hannover Airport

Retrieved 2020/04/06 18:50 UTC (15 minutes ago):

EDDV 061850Z VRB02KT CAVOK 16/04 Q1021 NOSIG

Aviation forecast (TAF) for Hannover Airport

Retrieved 2020/04/06 18:27 UTC (38 minutes ago):

TAF EDDV 061700Z 0618/0718 21005KT CAVOK BECMG 0621/0623 29005KT BECMG 0712/0714 03005KT